ΕΜΥ, Εθνική Μετεωρολογική Υπηρεσία - Δελτία Καιρού, Προγνώσεις

ΑΕΡΟΝΑΥΤΙΛΙΑ

GREEK AIRPORTS CODES

LGNX 191350Z 35016G26KT 9999 FEW025 20/13 Q1023=

EUROPEAN AIRPORTS CODES

LFPO 200400Z 19006KT 160V230 CAVOK 15/12 Q1012 NOSIG=